createdAt,value
2022-10-24T00:01:50.641Z,100046.22
2022-10-24T00:04:37.884Z,100069.00
2022-10-24T00:07:24.641Z,100061.09
2022-10-24T00:10:15.638Z,100054.31
2022-10-24T00:13:01.740Z,100055.44
2022-10-24T00:15:49.170Z,100052.19
2022-10-24T00:18:35.088Z,100039.91
2022-10-24T00:21:20.903Z,100048.16
2022-10-24T00:24:07.893Z,100039.13
2022-10-24T00:26:53.486Z,100027.13
2022-10-24T00:29:39.462Z,100020.84
2022-10-24T00:32:25.109Z,100029.22
2022-10-24T00:35:11.402Z,100000.97
2022-10-24T00:37:56.942Z,100018.59
2022-10-24T00:40:42.762Z,100013.25
2022-10-24T00:43:28.266Z,100009.69
2022-10-24T00:46:15.617Z,99996.13
2022-10-24T00:49:00.929Z,100006.19
2022-10-24T00:51:49.067Z,100001.50
2022-10-24T00:54:36.040Z,100004.56
2022-10-24T00:57:34.586Z,100003.09
2022-10-24T01:00:26.772Z,99993.75
2022-10-24T01:03:12.956Z,100009.91
2022-10-24T01:06:21.495Z,100000.25
2022-10-24T01:09:34.813Z,100004.13
2022-10-24T01:12:45.644Z,99992.50
2022-10-24T01:15:53.432Z,99982.00
2022-10-24T01:18:59.068Z,99984.44
2022-10-24T01:22:19.468Z,100012.34
2022-10-24T01:25:18.208Z,100011.22
2022-10-24T01:28:34.447Z,99984.28
2022-10-24T01:31:30.260Z,100007.69
2022-10-24T01:34:23.913Z,99964.13
2022-10-24T01:37:16.274Z,99976.06
2022-10-24T01:40:08.998Z,99968.19
2022-10-24T01:42:58.702Z,99950.94
2022-10-24T01:45:47.377Z,99952.53
2022-10-24T01:48:42.922Z,99943.19
2022-10-24T01:51:30.493Z,99936.56
2022-10-24T01:54:17.057Z,99938.19
2022-10-24T01:57:03.010Z,99920.44
2022-10-24T01:59:49.117Z,99944.50
2022-10-24T02:02:42.007Z,99925.28
2022-10-24T02:05:36.847Z,99920.44
2022-10-24T02:08:29.437Z,99937.06
2022-10-24T02:11:15.154Z,99929.81
2022-10-24T02:14:14.458Z,99928.38
2022-10-24T02:17:01.229Z,99930.78
2022-10-24T02:19:48.390Z,99910.47
2022-10-24T02:22:39.066Z,99917.72
2022-10-24T02:25:25.164Z,99921.75
2022-10-24T02:28:14.589Z,99917.09
2022-10-24T02:31:05.186Z,99913.03
2022-10-24T02:33:51.856Z,99906.91
2022-10-24T02:36:39.359Z,99907.88
2022-10-24T02:39:26.459Z,99905.44
2022-10-24T02:42:13.296Z,99921.25
2022-10-24T02:44:59.420Z,99906.75
2022-10-24T02:47:46.246Z,99914.66
2022-10-24T02:50:32.646Z,99915.63
2022-10-24T02:53:20.606Z,99916.41
2022-10-24T02:56:06.552Z,99895.75
2022-10-24T02:58:52.484Z,99903.53
2022-10-24T03:01:38.353Z,99913.53
2022-10-24T03:04:24.155Z,99929.81
2022-10-24T03:07:10.320Z,99921.94
2022-10-24T03:09:56.275Z,99930.31
2022-10-24T03:12:41.933Z,99923.38
2022-10-24T03:15:27.854Z,99889.16
2022-10-24T03:18:13.872Z,99904.16
2022-10-24T03:20:59.771Z,99893.34
2022-10-24T03:23:45.499Z,99895.31
2022-10-24T03:26:31.563Z,99897.69
2022-10-24T03:29:18.832Z,99889.97
2022-10-24T03:32:05.684Z,99876.25
2022-10-24T03:34:51.347Z,99871.88
2022-10-24T03:37:37.343Z,99864.78
2022-10-24T03:40:22.739Z,99841.06
2022-10-24T03:43:08.781Z,99828.81
2022-10-24T03:45:54.633Z,99836.72
2022-10-24T03:48:40.517Z,99850.41
2022-10-24T03:51:26.487Z,99852.84
2022-10-24T03:54:15.203Z,99843.47
2022-10-24T03:57:00.498Z,99878.19
2022-10-24T03:59:46.788Z,99871.91
2022-10-24T04:02:32.567Z,99852.34
2022-10-24T04:05:18.472Z,99858.66
2022-10-24T04:08:04.197Z,99856.06
2022-10-24T04:10:50.199Z,99849.78
2022-10-24T04:13:36.005Z,99848.31
2022-10-24T04:16:24.055Z,99866.75
2022-10-24T04:19:10.802Z,99875.09
2022-10-24T04:21:56.323Z,99848.31
2022-10-24T04:24:41.810Z,99876.06
2022-10-24T04:27:27.975Z,99855.13
2022-10-24T04:30:16.510Z,99853.97
2022-10-24T04:33:02.577Z,99843.81
2022-10-24T04:35:48.800Z,99844.78
2022-10-24T04:38:34.798Z,99863.16
2022-10-24T04:41:20.297Z,99862.38
2022-10-24T04:44:06.277Z,99843.16
2022-10-24T04:46:51.889Z,99846.69
2022-10-24T04:49:37.710Z,99844.28
2022-10-24T04:52:23.176Z,99829.25
2022-10-24T04:55:09.102Z,99856.22
2022-10-24T04:57:54.428Z,99861.53
2022-10-24T05:00:40.182Z,99866.25
2022-10-24T05:03:25.612Z,99869.59
2022-10-24T05:06:11.709Z,99870.75
2022-10-24T05:08:57.239Z,99867.06
2022-10-24T05:11:43.270Z,99884.16
2022-10-24T05:14:28.751Z,99895.59
2022-10-24T05:17:14.578Z,99906.28
2022-10-24T05:20:00.212Z,99895.59
2022-10-24T05:22:46.286Z,99898.84
2022-10-24T05:25:32.397Z,99889.00
2022-10-24T05:28:18.401Z,99889.63
2022-10-24T05:31:04.314Z,99887.38
2022-10-24T05:33:50.138Z,99900.31
2022-10-24T05:36:35.451Z,99877.53
2022-10-24T05:39:21.156Z,99906.09
2022-10-24T05:42:06.824Z,99905.44
2022-10-24T05:44:52.957Z,99903.03
2022-10-24T05:47:38.453Z,99898.03
2022-10-24T05:50:24.082Z,99910.44
2022-10-24T05:53:09.595Z,99906.91
2022-10-24T05:55:55.425Z,99874.00
2022-10-24T05:58:40.951Z,99906.09
2022-10-24T06:01:27.282Z,99883.19
2022-10-24T06:04:13.952Z,99890.94
2022-10-24T06:07:00.354Z,99912.06
2022-10-24T06:09:45.743Z,99906.59
2022-10-24T06:12:31.822Z,99891.91
2022-10-24T06:15:17.484Z,99904.66
2022-10-24T06:18:03.445Z,99893.19
2022-10-24T06:20:52.774Z,99891.25
2022-10-24T06:23:41.396Z,99903.03
2022-10-24T06:26:26.957Z,99904.31
2022-10-24T06:29:12.642Z,99899.00
2022-10-24T06:31:58.089Z,99898.03
2022-10-24T06:34:43.881Z,99910.31
2022-10-24T06:37:30.282Z,99914.66
2022-10-24T06:40:17.591Z,99892.88
2022-10-24T06:43:03.436Z,99886.25
2022-10-24T06:45:49.703Z,99901.91
2022-10-24T06:48:36.431Z,99883.66
2022-10-24T06:51:22.900Z,99896.25
2022-10-24T06:54:08.908Z,99911.91
2022-10-24T06:56:54.383Z,99899.59
2022-10-24T06:59:39.727Z,99912.38
2022-10-24T07:02:25.833Z,99903.16
2022-10-24T07:05:12.866Z,99906.41
2022-10-24T07:07:58.929Z,99907.03
2022-10-24T07:10:44.370Z,99902.19
2022-10-24T07:13:30.704Z,99912.16
2022-10-24T07:16:16.334Z,99895.72
2022-10-24T07:19:02.246Z,99896.34
2022-10-24T07:21:48.182Z,99899.91
2022-10-24T07:24:34.368Z,99904.41
2022-10-24T07:27:20.568Z,99905.56
2022-10-24T07:30:08.213Z,99887.78
2022-10-24T07:32:53.641Z,99905.84
2022-10-24T07:35:43.142Z,99908.88
2022-10-24T07:38:28.541Z,99915.63
2022-10-24T07:41:14.387Z,99918.53
2022-10-24T07:44:02.200Z,99921.59
2022-10-24T07:46:48.396Z,99914.47
2022-10-24T07:49:33.893Z,99895.34
2022-10-24T07:52:19.695Z,99894.38
2022-10-24T07:55:05.857Z,99908.03
2022-10-24T07:57:51.821Z,99913.34
2022-10-24T08:00:42.549Z,99920.72
2022-10-24T08:03:30.378Z,99910.47
2022-10-24T08:06:18.426Z,99902.84
2022-10-24T08:09:04.048Z,99895.53
2022-10-24T08:11:49.653Z,99909.50
2022-10-24T08:14:38.209Z,99890.72
2022-10-24T08:17:24.680Z,99919.19
2022-10-24T08:20:11.154Z,99914.75
2022-10-24T08:22:57.277Z,99920.97
2022-10-24T08:25:42.974Z,99917.38
2022-10-24T08:28:28.344Z,99908.75
2022-10-24T08:31:19.658Z,99913.47
2022-10-24T08:34:06.141Z,99924.84
2022-10-24T08:36:52.053Z,99910.16
2022-10-24T08:39:38.397Z,99902.13
2022-10-24T08:42:24.959Z,99881.91
2022-10-24T08:45:14.156Z,99874.59
2022-10-24T08:48:05.725Z,99911.34
2022-10-24T08:50:54.017Z,99915.63
2022-10-24T08:53:40.647Z,99892.78
2022-10-24T08:56:29.024Z,99885.31
2022-10-24T08:59:15.221Z,99891.34
2022-10-24T09:02:07.909Z,99899.47
2022-10-24T09:04:59.632Z,99893.41
2022-10-24T09:07:46.388Z,99897.06
2022-10-24T09:10:46.836Z,99890.19
2022-10-24T09:13:35.949Z,99915.22
2022-10-24T09:16:23.039Z,99923.03
2022-10-24T09:19:13.757Z,99913.72
2022-10-24T09:22:00.226Z,99930.16
2022-10-24T09:24:51.544Z,99938.56
2022-10-24T09:27:39.041Z,99942.44
2022-10-24T09:30:30.021Z,99925.81
2022-10-24T09:33:28.894Z,99921.69
2022-10-24T09:36:17.296Z,99936.94
2022-10-24T09:39:26.838Z,99933.50
2022-10-24T09:42:21.925Z,99905.66
2022-10-24T09:45:29.210Z,99913.06
2022-10-24T09:48:20.165Z,99922.59
2022-10-24T09:51:07.335Z,99916.81
2022-10-24T09:54:25.492Z,99895.34
2022-10-24T10:00:04.914Z,99907.13
2022-10-24T10:03:23.567Z,99918.84
2022-10-24T10:06:18.456Z,99912.53
2022-10-24T10:09:12.751Z,99928.84
2022-10-24T10:12:02.765Z,99926.31
2022-10-24T10:14:49.111Z,99932.06
2022-10-24T10:17:34.885Z,99925.75
2022-10-24T10:20:47.147Z,99940.31
2022-10-24T10:23:37.083Z,99933.25
2022-10-24T10:26:27.410Z,99928.03
2022-10-24T10:29:16.405Z,99927.16
2022-10-24T10:32:26.161Z,99923.22
2022-10-24T10:35:21.138Z,99903.38
2022-10-24T10:38:44.478Z,99913.75
2022-10-24T10:41:39.298Z,99913.59
2022-10-24T10:44:51.620Z,99896.00
2022-10-24T10:47:59.150Z,99916.19
2022-10-24T10:51:00.532Z,99889.88
2022-10-24T10:53:57.450Z,99916.63
2022-10-24T10:56:49.457Z,99903.28
2022-10-24T11:00:10.725Z,99904.22
2022-10-24T11:03:22.772Z,99918.88
2022-10-24T11:06:34.746Z,99916.91
2022-10-24T11:09:39.455Z,99923.75
2022-10-24T11:12:31.788Z,99917.97
2022-10-24T11:15:26.004Z,99917.69
2022-10-24T11:18:20.851Z,99925.81
2022-10-24T11:21:12.515Z,99896.81
2022-10-24T11:24:02.703Z,99891.72
2022-10-24T11:27:01.818Z,99895.19
2022-10-24T11:30:01.046Z,99918.81
2022-10-24T11:32:53.541Z,99903.88
2022-10-24T11:35:51.487Z,99884.34
2022-10-24T11:38:45.206Z,99897.56
2022-10-24T11:41:51.373Z,99903.53
2022-10-24T11:44:50.391Z,99906.94
2022-10-24T11:47:48.397Z,99907.31
2022-10-24T11:50:54.527Z,99905.69
2022-10-24T11:53:50.003Z,99902.13
2022-10-24T11:56:52.179Z,99901.66
2022-10-24T11:59:40.923Z,99894.91
2022-10-24T12:02:44.381Z,99900.06
2022-10-24T12:05:53.043Z,99875.19
2022-10-24T12:09:05.454Z,99895.63
2022-10-24T12:12:03.215Z,99883.22
2022-10-24T12:14:56.927Z,99869.84
2022-10-24T12:18:12.070Z,99880.56
2022-10-24T12:21:03.784Z,99858.06
2022-10-24T12:23:57.071Z,99866.56
2022-10-24T12:26:44.179Z,99867.34
2022-10-24T12:29:34.573Z,99866.47
2022-10-24T12:32:32.483Z,99877.78
2022-10-24T12:35:30.269Z,99874.22
2022-10-24T12:38:29.040Z,99868.31
2022-10-24T12:41:32.750Z,99869.13
2022-10-24T12:44:33.897Z,99862.84
2022-10-24T12:47:35.522Z,99860.16
2022-10-24T12:50:21.492Z,99858.63
2022-10-24T12:53:19.568Z,99857.91
2022-10-24T12:56:07.474Z,99854.75
2022-10-24T12:58:58.057Z,99856.28
2022-10-24T13:01:45.089Z,99836.88
2022-10-24T13:04:41.386Z,99864.91
2022-10-24T13:07:58.269Z,99852.56
2022-10-24T13:10:58.933Z,99859.34
2022-10-24T13:13:55.017Z,99852.22
2022-10-24T13:16:50.713Z,99841.72
2022-10-24T13:19:36.785Z,99844.13
2022-10-24T13:22:35.789Z,99842.94
2022-10-24T13:25:35.757Z,99853.88
2022-10-24T13:28:22.304Z,99842.88
2022-10-24T13:31:08.204Z,99851.63
2022-10-24T13:34:13.145Z,99860.28
2022-10-24T13:37:25.475Z,99859.06
2022-10-24T13:40:18.187Z,99846.53
2022-10-24T13:43:07.852Z,99843.25
2022-10-24T13:45:53.503Z,99850.09
2022-10-24T13:48:40.576Z,99832.06
2022-10-24T13:51:36.113Z,99843.53
2022-10-24T13:54:27.441Z,99843.78
2022-10-24T13:57:35.951Z,99828.31
2022-10-24T14:00:25.841Z,99844.22
2022-10-24T14:03:17.332Z,99835.03
2022-10-24T14:06:06.601Z,99835.22
2022-10-24T14:09:05.608Z,99817.56
2022-10-24T14:11:56.712Z,99831.84
2022-10-24T14:14:42.418Z,99804.59
2022-10-24T14:17:31.394Z,99837.94
2022-10-24T14:20:26.872Z,99845.41
2022-10-24T14:23:23.764Z,99850.06
2022-10-24T14:26:12.203Z,99855.88
2022-10-24T14:29:00.892Z,99849.47
2022-10-24T14:31:46.549Z,99820.84
2022-10-24T14:34:36.271Z,99827.72
2022-10-24T14:37:35.051Z,99829.22
2022-10-24T14:40:20.783Z,99829.41
2022-10-24T14:43:06.105Z,99832.06
2022-10-24T14:46:10.120Z,99857.06
2022-10-24T14:48:56.140Z,99847.09
2022-10-24T14:51:42.776Z,99857.34
2022-10-24T14:54:33.543Z,99854.84
2022-10-24T14:57:21.001Z,99858.31
2022-10-24T15:00:08.930Z,99851.19
2022-10-24T15:02:57.704Z,99860.19
2022-10-24T15:05:54.089Z,99858.31
2022-10-24T15:11:29.107Z,99844.91
2022-10-24T15:14:31.753Z,99842.75
2022-10-24T15:17:17.047Z,99864.06
2022-10-24T15:20:03.900Z,99856.47
2022-10-24T15:22:59.732Z,99855.59
2022-10-24T15:25:45.818Z,99849.88
2022-10-24T15:29:03.520Z,99860.13
2022-10-24T15:31:51.357Z,99858.41
2022-10-24T15:34:37.017Z,99860.72
2022-10-24T15:37:24.754Z,99858.78
2022-10-24T15:40:22.434Z,99854.66
2022-10-24T15:43:12.501Z,99864.09
2022-10-24T15:45:58.190Z,99859.03
2022-10-24T15:48:44.210Z,99847.09
2022-10-24T15:51:30.444Z,99859.03
2022-10-24T15:54:18.424Z,99850.91
2022-10-24T15:57:05.513Z,99857.22
2022-10-24T15:59:51.748Z,99864.34
2022-10-24T16:02:37.345Z,99850.97
2022-10-24T16:05:26.202Z,99872.88
2022-10-24T16:08:14.560Z,99865.31
2022-10-24T16:11:00.534Z,99862.44
2022-10-24T16:13:46.327Z,99863.59
2022-10-24T16:16:32.126Z,99852.00
2022-10-24T16:19:17.949Z,99841.91
2022-10-24T16:22:03.904Z,99836.63
2022-10-24T16:24:49.277Z,99849.25
2022-10-24T16:27:34.991Z,99852.13
2022-10-24T16:30:22.761Z,99847.66
2022-10-24T16:33:09.082Z,99851.31
2022-10-24T16:35:54.623Z,99839.13
2022-10-24T16:38:40.209Z,99856.84
2022-10-24T16:41:25.976Z,99839.91
2022-10-24T16:44:13.273Z,99844.06
2022-10-24T16:46:58.841Z,99841.53
2022-10-24T16:49:47.725Z,99860.75
2022-10-24T16:52:33.906Z,99852.72
2022-10-24T16:55:20.730Z,99846.13
2022-10-24T16:58:06.280Z,99875.25
2022-10-24T17:01:02.054Z,99883.53
2022-10-24T17:03:47.850Z,99859.94
2022-10-24T17:06:34.223Z,99862.34
2022-10-24T17:09:19.841Z,99884.66
2022-10-24T17:12:06.382Z,99882.44
2022-10-24T17:14:52.097Z,99878.91
2022-10-24T17:17:39.882Z,99899.63
2022-10-24T17:20:25.329Z,99909.50
2022-10-24T17:23:13.909Z,99894.88
2022-10-24T17:26:00.108Z,99895.00
2022-10-24T17:28:46.434Z,99885.47
2022-10-24T17:31:32.131Z,99891.09
2022-10-24T17:34:18.455Z,99884.75
2022-10-24T17:37:24.641Z,99886.41
2022-10-24T17:40:17.869Z,99871.09
2022-10-24T17:43:06.324Z,99890.78
2022-10-24T17:45:53.028Z,99894.78
2022-10-24T17:48:39.140Z,99893.97
2022-10-24T17:51:26.619Z,99881.09
2022-10-24T17:54:12.430Z,99895.22
2022-10-24T17:56:58.279Z,99892.94
2022-10-24T17:59:43.955Z,99887.78
2022-10-24T18:02:30.444Z,99874.88
2022-10-24T18:05:16.930Z,99886.50
2022-10-24T18:08:02.454Z,99885.25
2022-10-24T18:10:48.308Z,99901.44
2022-10-24T18:13:36.449Z,99883.63
2022-10-24T18:16:22.220Z,99896.34
2022-10-24T18:19:08.401Z,99882.34
2022-10-24T18:21:54.216Z,99883.63
2022-10-24T18:24:40.341Z,99882.00
2022-10-24T18:27:25.623Z,99867.75
2022-10-24T18:30:12.112Z,99872.94
2022-10-24T18:32:57.671Z,99892.72
2022-10-24T18:35:43.893Z,99896.63
2022-10-24T18:38:33.336Z,99887.75
2022-10-24T18:41:41.832Z,99901.31
2022-10-24T18:44:33.625Z,99901.69
2022-10-24T18:47:23.228Z,99901.22
2022-10-24T18:50:16.119Z,99880.38
2022-10-24T18:53:11.783Z,99889.56
2022-10-24T18:55:57.569Z,99886.38
2022-10-24T18:58:43.380Z,99890.03
2022-10-24T19:01:38.499Z,99883.16
2022-10-24T19:04:25.730Z,99901.88
2022-10-24T19:07:11.617Z,99907.28
2022-10-24T19:09:57.528Z,99898.09
2022-10-24T19:12:43.255Z,99885.13
2022-10-24T19:15:29.254Z,99898.22
2022-10-24T19:18:16.241Z,99908.44
2022-10-24T19:21:04.393Z,99907.88
2022-10-24T19:23:50.459Z,99915.22
2022-10-24T19:26:37.177Z,99912.69
2022-10-24T19:29:22.829Z,99905.78
2022-10-24T19:32:08.443Z,99891.19
2022-10-24T19:34:53.896Z,99916.25
2022-10-24T19:37:40.099Z,99922.09
2022-10-24T19:40:25.511Z,99907.59
2022-10-24T19:43:11.241Z,99915.41
2022-10-24T19:49:03.725Z,99897.94
2022-10-24T19:51:51.033Z,99889.56
2022-10-24T19:54:36.764Z,99891.75
2022-10-24T19:57:22.081Z,99885.78
2022-10-24T20:00:08.830Z,99869.81
2022-10-24T20:02:58.706Z,99890.81
2022-10-24T20:05:45.772Z,99904.16
2022-10-24T20:08:31.480Z,99899.69
2022-10-24T20:11:20.431Z,99910.03
2022-10-24T20:14:06.696Z,99914.84
2022-10-24T20:16:52.285Z,99910.81
2022-10-24T20:19:37.725Z,99914.84
2022-10-24T20:22:23.229Z,99896.69
2022-10-24T20:25:08.925Z,99918.53
2022-10-24T20:27:54.663Z,99912.56
2022-10-24T20:30:45.797Z,99905.53
2022-10-24T20:33:31.655Z,99929.34
2022-10-24T20:36:17.673Z,99937.47
2022-10-24T20:39:05.020Z,99928.94
2022-10-24T20:41:53.342Z,99933.31
2022-10-24T20:44:40.285Z,99924.81
2022-10-24T20:47:28.564Z,99927.78
2022-10-24T20:50:14.451Z,99924.78
2022-10-24T20:52:59.899Z,99922.44
2022-10-24T20:55:45.930Z,99922.31
2022-10-24T20:58:31.335Z,99939.44
2022-10-24T21:01:21.504Z,99922.88
2022-10-24T21:04:07.494Z,99933.28
2022-10-24T21:06:53.847Z,99943.31
2022-10-24T21:09:39.340Z,99935.44
2022-10-24T21:12:25.631Z,99951.88
2022-10-24T21:15:11.527Z,99953.81
2022-10-24T21:17:57.111Z,99941.28
2022-10-24T21:20:42.514Z,99953.34
2022-10-24T21:23:28.570Z,99949.00
2022-10-24T21:26:14.142Z,99958.88
2022-10-24T21:29:08.966Z,99969.56
2022-10-24T21:32:06.034Z,99961.34
2022-10-24T21:34:52.067Z,99973.00
2022-10-24T21:37:37.466Z,99958.69
2022-10-24T21:40:23.530Z,99986.28
2022-10-24T21:43:09.116Z,99988.03
2022-10-24T21:46:10.993Z,99986.88
2022-10-24T21:48:56.990Z,99977.97
2022-10-24T21:51:44.855Z,99970.16
2022-10-24T21:54:30.499Z,99974.84
2022-10-24T21:57:16.155Z,99978.44
2022-10-24T22:00:01.887Z,99957.47
2022-10-24T22:02:47.776Z,99960.22
2022-10-24T22:05:33.730Z,99964.00
2022-10-24T22:08:19.495Z,99961.44
2022-10-24T22:11:07.632Z,99968.56
2022-10-24T22:13:53.771Z,99975.00
2022-10-24T22:16:39.562Z,99973.72
2022-10-24T22:19:25.596Z,99976.34
2022-10-24T22:22:10.919Z,99974.38
2022-10-24T22:24:57.147Z,99972.28
2022-10-24T22:27:42.845Z,99979.75
2022-10-24T22:30:28.768Z,99965.56
2022-10-24T22:33:22.149Z,99955.44
2022-10-24T22:36:18.221Z,99968.53
2022-10-24T22:39:05.074Z,99971.75
2022-10-24T22:41:51.422Z,99980.47
2022-10-24T22:44:37.779Z,99984.38
2022-10-24T22:47:36.671Z,99982.09
2022-10-24T22:50:32.081Z,99983.69
2022-10-24T22:53:26.179Z,99957.56
2022-10-24T22:56:22.831Z,99981.47
2022-10-24T22:59:08.547Z,99983.44
2022-10-24T23:02:19.820Z,99976.69
2022-10-24T23:05:19.579Z,99974.91
2022-10-24T23:08:07.257Z,99990.06
2022-10-24T23:10:52.947Z,99982.47
2022-10-24T23:13:40.028Z,99984.88
2022-10-24T23:16:44.548Z,99976.53
2022-10-24T23:19:32.020Z,99987.16
2022-10-24T23:22:22.769Z,99993.50
2022-10-24T23:25:09.395Z,99979.72
2022-10-24T23:28:19.457Z,99972.13
2022-10-24T23:31:05.398Z,99977.28
2022-10-24T23:33:51.715Z,99961.19
2022-10-24T23:36:37.606Z,99979.09
2022-10-24T23:39:25.095Z,99971.88
2022-10-24T23:42:11.179Z,99969.78
2022-10-24T23:44:57.242Z,99983.66
2022-10-24T23:47:51.817Z,99974.47
2022-10-24T23:50:56.888Z,99965.94
2022-10-24T23:53:53.698Z,99976.63
2022-10-24T23:56:39.941Z,99975.47
2022-10-24T23:59:25.271Z,99968.75
